createdAt,value
2023-04-06T00:01:56.651Z,74.12
2023-04-06T00:04:24.261Z,74.61
2023-04-06T00:06:51.531Z,74.48
2023-04-06T00:09:19.112Z,75.71
2023-04-06T00:11:47.673Z,75.92
2023-04-06T00:14:18.177Z,76.10
2023-04-06T00:16:45.537Z,75.02
2023-04-06T00:19:13.237Z,74.30
2023-04-06T00:21:40.605Z,74.00
2023-04-06T00:24:07.987Z,73.77
2023-04-06T00:26:35.377Z,73.74
2023-04-06T00:29:03.974Z,73.51
2023-04-06T00:31:31.255Z,73.85
2023-04-06T00:33:59.445Z,74.31
2023-04-06T00:36:27.353Z,74.17
2023-04-06T00:38:54.626Z,73.89
2023-04-06T00:41:22.185Z,74.23
2023-04-06T00:43:49.487Z,74.08
2023-04-06T00:46:18.088Z,73.79
2023-04-06T00:48:45.381Z,74.69
2023-04-06T00:51:12.679Z,75.51
2023-04-06T00:53:39.938Z,75.80
2023-04-06T00:56:07.443Z,75.61
2023-04-06T00:58:38.850Z,75.16
2023-04-06T01:01:06.223Z,74.87
2023-04-06T01:03:34.859Z,74.79
2023-04-06T01:06:02.175Z,74.78
2023-04-06T01:08:29.909Z,74.95
2023-04-06T01:10:57.238Z,75.75
2023-04-06T01:13:24.501Z,74.91
2023-04-06T01:15:51.864Z,75.77
2023-04-06T01:18:19.131Z,76.08
2023-04-06T01:20:47.709Z,75.79
2023-04-06T01:23:16.523Z,75.32
2023-04-06T01:25:43.797Z,74.92
2023-04-06T01:28:11.279Z,74.73
2023-04-06T01:30:38.608Z,75.22
2023-04-06T01:33:06.096Z,75.36
2023-04-06T01:35:33.448Z,75.97
2023-04-06T01:38:00.764Z,76.84
2023-04-06T01:40:29.347Z,76.76
2023-04-06T01:42:56.582Z,76.51
2023-04-06T01:45:23.829Z,76.69
2023-04-06T01:47:51.179Z,76.53
2023-04-06T01:50:18.670Z,76.98
2023-04-06T01:52:46.121Z,77.03
2023-04-06T01:55:13.360Z,77.08
2023-04-06T01:57:41.996Z,76.01
2023-04-06T02:00:09.778Z,76.01
2023-04-06T02:02:37.276Z,76.26
2023-04-06T02:05:04.790Z,77.26
2023-04-06T02:07:32.063Z,77.25
2023-04-06T02:09:59.320Z,77.17
2023-04-06T02:12:26.596Z,76.61
2023-04-06T02:14:55.236Z,77.12
2023-04-06T02:17:22.513Z,77.67
2023-04-06T02:19:50.070Z,76.62
2023-04-06T02:22:17.460Z,77.68
2023-04-06T02:24:44.710Z,78.44
2023-04-06T02:27:11.972Z,78.86
2023-04-06T02:29:39.225Z,79.04
2023-04-06T02:32:07.891Z,79.05
2023-04-06T02:34:35.371Z,78.11
2023-04-06T02:37:02.701Z,78.85
2023-04-06T02:39:30.060Z,79.63
2023-04-06T02:41:57.963Z,80.05
2023-04-06T02:44:25.387Z,80.05
2023-04-06T02:46:52.693Z,79.79
2023-04-06T02:49:21.423Z,79.41
2023-04-06T02:51:48.716Z,79.25
2023-04-06T02:54:16.003Z,79.47
2023-04-06T02:56:43.278Z,80.18
2023-04-06T02:59:10.819Z,80.43
2023-04-06T03:01:38.554Z,80.06
2023-04-06T03:04:05.849Z,80.04
2023-04-06T03:06:34.444Z,80.13
2023-04-06T03:09:01.737Z,80.05
2023-04-06T03:11:29.042Z,80.00
2023-04-06T03:13:56.333Z,80.88
2023-04-06T03:16:23.634Z,81.03
2023-04-06T03:18:50.950Z,81.47
2023-04-06T03:21:18.239Z,80.93
2023-04-06T03:23:46.871Z,80.32
2023-04-06T03:26:14.145Z,79.82
2023-04-06T03:28:41.411Z,79.92
2023-04-06T03:31:08.713Z,80.16
2023-04-06T03:33:36.098Z,80.49
2023-04-06T03:36:03.417Z,81.37
2023-04-06T03:38:30.741Z,82.43
2023-04-06T03:40:59.332Z,83.49
2023-04-06T03:43:26.590Z,82.49
2023-04-06T03:45:53.852Z,82.31
2023-04-06T03:48:21.134Z,83.50
2023-04-06T03:50:48.426Z,84.20
2023-04-06T03:53:15.763Z,84.40
2023-04-06T03:55:43.146Z,84.54
2023-04-06T03:58:11.760Z,84.12
2023-04-06T04:00:39.118Z,84.26
2023-04-06T04:03:06.612Z,83.72
2023-04-06T04:05:34.004Z,82.87
2023-04-06T04:08:01.294Z,81.64
2023-04-06T04:10:28.582Z,81.38
2023-04-06T04:12:55.894Z,81.74
2023-04-06T04:15:24.528Z,81.22
2023-04-06T04:17:52.008Z,80.24
2023-04-06T04:20:19.836Z,80.22
2023-04-06T04:22:47.084Z,80.25
2023-04-06T04:25:15.324Z,79.84
2023-04-06T04:27:42.612Z,79.66
2023-04-06T04:30:10.369Z,79.82
2023-04-06T04:32:38.996Z,79.96
2023-04-06T04:35:06.766Z,79.80
2023-04-06T04:37:35.846Z,79.78
2023-04-06T04:40:03.647Z,80.24
2023-04-06T04:42:30.920Z,79.91
2023-04-06T04:44:58.170Z,79.88
2023-04-06T04:47:25.531Z,80.97
2023-04-06T04:49:54.140Z,80.89
2023-04-06T04:52:21.437Z,80.60
2023-04-06T04:54:48.906Z,81.05
2023-04-06T04:57:16.174Z,80.60
2023-04-06T04:59:44.407Z,81.03
2023-04-06T05:02:11.746Z,81.26
2023-04-06T05:04:39.085Z,81.95
2023-04-06T05:07:08.613Z,81.98
2023-04-06T05:09:36.064Z,81.85
2023-04-06T05:12:03.448Z,82.13
2023-04-06T05:14:31.019Z,82.15
2023-04-06T05:16:58.330Z,82.67
2023-04-06T05:19:25.687Z,83.27
2023-04-06T05:21:52.962Z,83.38
2023-04-06T05:24:21.543Z,82.72
2023-04-06T05:26:48.811Z,82.20
2023-04-06T05:29:16.131Z,81.27
2023-04-06T05:31:43.526Z,79.83
2023-04-06T05:34:11.477Z,78.64
2023-04-06T05:36:38.776Z,78.51
2023-04-06T05:39:06.260Z,77.37
2023-04-06T05:41:35.086Z,76.65
2023-04-06T05:44:02.357Z,76.02
2023-04-06T05:46:29.678Z,74.91
2023-04-06T05:48:57.093Z,74.18
2023-04-06T05:51:24.449Z,73.37
2023-04-06T05:53:51.747Z,72.61
2023-04-06T05:56:19.314Z,72.39
2023-04-06T05:58:47.971Z,71.46
2023-04-06T06:01:15.321Z,71.35
2023-04-06T06:03:42.555Z,71.59
2023-04-06T06:06:09.847Z,71.45
2023-04-06T06:08:37.102Z,71.29
2023-04-06T06:11:04.364Z,70.85
2023-04-06T06:13:31.640Z,70.60
2023-04-06T06:16:00.291Z,70.18
2023-04-06T06:18:27.614Z,70.26
2023-04-06T06:20:55.101Z,70.21
2023-04-06T06:23:22.418Z,70.27
2023-04-06T06:25:49.684Z,69.86
2023-04-06T06:28:17.421Z,69.71
2023-04-06T06:30:44.720Z,69.32
2023-04-06T06:33:13.378Z,68.28
2023-04-06T06:35:40.753Z,67.87
2023-04-06T06:38:08.318Z,67.07
2023-04-06T06:40:35.729Z,65.75
2023-04-06T06:43:03.210Z,65.55
2023-04-06T06:45:31.351Z,67.57
2023-04-06T06:47:58.647Z,66.26
2023-04-06T06:50:27.294Z,64.44
2023-04-06T06:52:54.633Z,63.60
2023-04-06T06:55:21.982Z,64.43
2023-04-06T06:57:49.292Z,62.83
2023-04-06T07:00:16.979Z,62.11
2023-04-06T07:02:44.354Z,61.06
2023-04-06T07:05:24.329Z,61.81
2023-04-06T07:07:56.293Z,60.39
2023-04-06T07:10:23.728Z,59.55
2023-04-06T07:12:51.029Z,59.13
2023-04-06T07:15:18.390Z,59.63
2023-04-06T07:17:46.578Z,58.62
2023-04-06T07:20:14.393Z,58.41
2023-04-06T07:22:42.416Z,58.04
2023-04-06T07:25:11.346Z,58.25
2023-04-06T07:27:38.968Z,58.33
2023-04-06T07:30:06.809Z,58.03
2023-04-06T07:32:35.595Z,57.72
2023-04-06T07:35:03.050Z,56.71
2023-04-06T07:37:30.353Z,55.89
2023-04-06T07:39:57.631Z,55.92
2023-04-06T07:42:26.206Z,54.56
2023-04-06T07:44:53.499Z,54.66
2023-04-06T07:47:20.766Z,54.64
2023-04-06T07:49:48.055Z,53.82
2023-04-06T07:52:15.298Z,53.18
2023-04-06T07:54:42.705Z,52.56
2023-04-06T07:57:10.012Z,51.83
2023-04-06T07:59:38.725Z,51.62
2023-04-06T08:02:06.306Z,52.17
2023-04-06T08:04:33.891Z,50.96
2023-04-06T08:07:01.528Z,50.18
2023-04-06T08:09:28.974Z,49.00
2023-04-06T08:11:56.410Z,48.27
2023-04-06T08:14:23.732Z,47.48
2023-04-06T08:16:52.327Z,47.20
2023-04-06T08:19:19.899Z,46.55
2023-04-06T08:21:48.125Z,47.10
2023-04-06T08:24:15.493Z,47.46
2023-04-06T08:26:42.874Z,45.06
2023-04-06T08:29:10.307Z,44.81
2023-04-06T08:31:37.924Z,43.45
2023-04-06T08:34:08.606Z,42.70
2023-04-06T08:36:37.493Z,43.62
2023-04-06T08:39:04.882Z,43.16
2023-04-06T08:41:33.003Z,43.65
2023-04-06T08:44:01.091Z,41.69
2023-04-06T08:46:30.809Z,42.51
2023-04-06T08:48:58.699Z,38.85
2023-04-06T08:51:28.746Z,38.96
2023-04-06T08:53:56.507Z,39.05
2023-04-06T08:56:24.001Z,37.66
2023-04-06T08:58:53.906Z,37.71
2023-04-06T09:01:23.294Z,37.63
2023-04-06T09:03:51.775Z,37.79
2023-04-06T09:06:19.732Z,40.94
2023-04-06T09:08:48.336Z,39.68
2023-04-06T09:11:16.859Z,38.54
2023-04-06T09:13:47.979Z,38.19
2023-04-06T09:16:15.403Z,36.57
2023-04-06T09:18:42.913Z,37.87
2023-04-06T09:21:10.780Z,37.28
2023-04-06T09:23:38.924Z,35.78
2023-04-06T09:26:11.638Z,35.21
2023-04-06T09:28:46.291Z,35.46
2023-04-06T09:31:13.618Z,34.95
2023-04-06T09:33:41.358Z,34.45
2023-04-06T09:36:10.504Z,36.43
2023-04-06T09:38:38.651Z,34.48
2023-04-06T09:41:05.993Z,33.58
2023-04-06T09:43:34.636Z,33.57
2023-04-06T09:46:03.877Z,32.54
2023-04-06T09:48:32.944Z,33.69
2023-04-06T09:51:01.666Z,33.14
2023-04-06T09:53:29.992Z,32.01
2023-04-06T09:55:59.585Z,31.96
2023-04-06T09:58:27.803Z,31.24
2023-04-06T10:00:59.711Z,30.04
2023-04-06T10:03:33.029Z,31.27
2023-04-06T10:06:05.661Z,30.53
2023-04-06T10:08:35.000Z,31.39
2023-04-06T10:11:02.621Z,32.54
2023-04-06T10:13:29.892Z,30.11
2023-04-06T10:15:59.192Z,31.63
2023-04-06T10:18:26.650Z,31.14
2023-04-06T10:20:56.806Z,30.58
2023-04-06T10:23:26.038Z,29.84
2023-04-06T10:25:54.021Z,29.10
2023-04-06T10:28:21.609Z,29.11
2023-04-06T10:30:49.202Z,28.43
2023-04-06T10:33:18.512Z,28.27
2023-04-06T10:35:46.411Z,29.74
2023-04-06T10:38:15.180Z,29.87
2023-04-06T10:40:43.801Z,28.90
2023-04-06T10:43:11.630Z,29.39
2023-04-06T10:45:39.434Z,27.81
2023-04-06T10:48:16.940Z,28.94
2023-04-06T10:50:47.173Z,30.29
2023-04-06T10:53:22.346Z,29.29
2023-04-06T10:55:51.134Z,27.68
2023-04-06T10:58:18.505Z,29.32
2023-04-06T11:00:50.645Z,29.77
2023-04-06T11:03:19.155Z,30.86
2023-04-06T11:05:48.525Z,29.66
2023-04-06T11:08:25.609Z,29.26
2023-04-06T11:10:52.992Z,28.15
2023-04-06T11:13:20.284Z,27.84
2023-04-06T11:15:47.612Z,28.39
2023-04-06T11:18:18.883Z,29.49
2023-04-06T11:20:50.913Z,31.08
2023-04-06T11:23:24.301Z,30.94
2023-04-06T11:25:52.424Z,29.60
2023-04-06T11:28:19.981Z,30.41
2023-04-06T11:30:47.339Z,30.86
2023-04-06T11:33:21.699Z,31.98
2023-04-06T11:35:50.430Z,31.94
2023-04-06T11:38:19.864Z,31.78
2023-04-06T11:40:47.212Z,32.84
2023-04-06T11:43:14.486Z,30.73
2023-04-06T11:45:42.870Z,31.58
2023-04-06T11:48:19.221Z,31.20
2023-04-06T11:50:48.415Z,31.21
2023-04-06T11:53:17.037Z,30.86
2023-04-06T11:55:47.686Z,30.66
2023-04-06T11:58:15.031Z,31.51
2023-04-06T12:00:47.322Z,30.04
2023-04-06T12:03:15.314Z,30.31
2023-04-06T12:05:42.701Z,30.75
2023-04-06T12:08:10.023Z,31.15
2023-04-06T12:10:38.632Z,29.88
2023-04-06T12:13:05.911Z,30.30
2023-04-06T12:15:33.277Z,29.43
2023-04-06T12:18:00.679Z,29.09
2023-04-06T12:20:28.400Z,30.35
2023-04-06T12:22:55.961Z,28.06
2023-04-06T12:25:23.237Z,29.33
2023-04-06T12:27:51.851Z,28.81
2023-04-06T12:30:19.185Z,28.70
2023-04-06T12:32:48.267Z,29.39
2023-04-06T12:35:17.290Z,29.88
2023-04-06T12:37:44.581Z,30.58
2023-04-06T12:40:12.793Z,30.61
2023-04-06T12:42:41.322Z,29.95
2023-04-06T12:45:10.587Z,29.75
2023-04-06T12:47:38.637Z,29.73
2023-04-06T12:50:07.351Z,29.11
2023-04-06T12:52:36.233Z,29.46
2023-04-06T12:55:03.701Z,30.43
2023-04-06T12:57:31.524Z,31.03
2023-04-06T12:59:59.327Z,30.33
2023-04-06T13:02:28.120Z,30.12
2023-04-06T13:04:55.430Z,29.61
2023-04-06T13:07:22.732Z,29.39
2023-04-06T13:09:50.644Z,28.98
2023-04-06T13:12:17.967Z,29.91
2023-04-06T13:14:45.445Z,30.24
2023-04-06T13:17:12.807Z,30.05
2023-04-06T13:19:41.419Z,30.11
2023-04-06T13:22:08.691Z,30.26
2023-04-06T13:24:36.097Z,31.09
2023-04-06T13:27:03.657Z,31.85
2023-04-06T13:29:31.148Z,29.46
2023-04-06T13:31:58.458Z,31.26
2023-04-06T13:34:25.743Z,30.81
2023-04-06T13:36:54.448Z,30.94
2023-04-06T13:39:21.751Z,30.91
2023-04-06T13:41:49.380Z,30.69
2023-04-06T13:44:16.993Z,30.99
2023-04-06T13:46:44.750Z,31.16
2023-04-06T13:49:12.026Z,30.04
2023-04-06T13:51:39.282Z,30.65
2023-04-06T13:54:07.996Z,31.72
2023-04-06T13:56:35.299Z,30.53
2023-04-06T13:59:02.617Z,31.20
2023-04-06T14:01:29.971Z,30.97
2023-04-06T14:03:57.419Z,30.83
2023-04-06T14:06:31.283Z,31.18
2023-04-06T14:08:59.495Z,31.36
2023-04-06T14:11:28.166Z,31.45
2023-04-06T14:13:58.035Z,31.58
2023-04-06T14:16:26.477Z,32.08
2023-04-06T14:18:53.898Z,32.03
2023-04-06T14:21:21.227Z,31.89
2023-04-06T14:23:48.568Z,32.37
2023-04-06T14:26:16.203Z,32.74
2023-04-06T14:28:44.847Z,32.12
2023-04-06T14:31:14.146Z,31.94
2023-04-06T14:33:41.859Z,32.47
2023-04-06T14:36:09.776Z,33.15
2023-04-06T14:38:37.417Z,33.17
2023-04-06T14:41:04.757Z,32.59
2023-04-06T14:43:33.262Z,32.60
2023-04-06T14:46:06.427Z,32.55
2023-04-06T14:48:33.709Z,32.57
2023-04-06T14:51:01.249Z,32.74
2023-04-06T14:53:29.208Z,32.43
2023-04-06T14:55:56.975Z,32.12
2023-04-06T14:58:25.424Z,32.93
2023-04-06T15:00:56.819Z,32.37
2023-04-06T15:03:26.348Z,32.62
2023-04-06T15:05:54.186Z,31.93
2023-04-06T15:08:22.390Z,31.88
2023-04-06T15:10:49.729Z,32.90
2023-04-06T15:13:17.070Z,32.51
2023-04-06T15:15:44.717Z,32.41
2023-04-06T15:18:12.421Z,32.64
2023-04-06T15:20:41.521Z,31.85
2023-04-06T15:23:08.788Z,31.87
2023-04-06T15:25:36.124Z,32.52
2023-04-06T15:28:03.445Z,32.24
2023-04-06T15:30:30.751Z,32.21
2023-04-06T15:33:01.407Z,32.17
2023-04-06T15:35:29.616Z,32.61
2023-04-06T15:37:58.764Z,32.79
2023-04-06T15:40:27.199Z,33.14
2023-04-06T15:42:54.499Z,33.44
2023-04-06T15:45:22.091Z,33.33
2023-04-06T15:47:49.457Z,32.95
2023-04-06T15:50:16.772Z,32.63
2023-04-06T15:52:44.075Z,33.36
2023-04-06T15:55:12.682Z,34.48
2023-04-06T15:57:39.986Z,33.69
2023-04-06T16:00:08.783Z,34.18
2023-04-06T16:02:36.219Z,33.88
2023-04-06T16:05:04.225Z,32.88
2023-04-06T16:07:31.863Z,33.37
2023-04-06T16:09:59.489Z,32.86
2023-04-06T16:12:29.089Z,33.53
2023-04-06T16:14:56.551Z,33.32
2023-04-06T16:17:23.882Z,33.11
2023-04-06T16:19:51.255Z,33.13
2023-04-06T16:22:18.550Z,33.55
2023-04-06T16:24:45.843Z,35.61
2023-04-06T16:27:13.206Z,34.42
2023-04-06T16:29:42.147Z,33.62
2023-04-06T16:32:11.019Z,33.52
2023-04-06T16:34:38.424Z,33.73
2023-04-06T16:37:05.776Z,33.56
2023-04-06T16:39:33.117Z,33.05
2023-04-06T16:42:02.289Z,34.07
2023-04-06T16:44:30.390Z,33.56
2023-04-06T16:47:00.175Z,34.10
2023-04-06T16:49:27.881Z,34.10
2023-04-06T16:51:55.343Z,35.22
2023-04-06T16:54:22.616Z,34.27
2023-04-06T16:56:49.865Z,35.14
2023-04-06T16:59:17.119Z,34.70
2023-04-06T17:01:44.468Z,34.87
2023-04-06T17:04:13.538Z,35.33
2023-04-06T17:06:40.989Z,36.09
2023-04-06T17:09:08.270Z,34.93
2023-04-06T17:11:45.985Z,34.31
2023-04-06T17:14:14.070Z,35.55
2023-04-06T17:16:41.369Z,35.96
2023-04-06T17:19:09.039Z,35.79
2023-04-06T17:21:37.807Z,35.70
2023-04-06T17:24:05.361Z,34.87
2023-04-06T17:26:32.637Z,35.06
2023-04-06T17:28:59.897Z,35.07
2023-04-06T17:31:27.297Z,35.33
2023-04-06T17:33:54.568Z,35.87
2023-04-06T17:36:22.260Z,35.87
2023-04-06T17:38:51.240Z,36.58
2023-04-06T17:41:18.506Z,36.83
2023-04-06T17:43:46.019Z,36.79
2023-04-06T17:46:13.591Z,36.67
2023-04-06T17:48:41.644Z,37.08
2023-04-06T17:51:08.935Z,37.52
2023-04-06T17:53:37.080Z,37.28
2023-04-06T17:56:06.093Z,37.43
2023-04-06T17:58:33.837Z,37.53
2023-04-06T18:01:06.150Z,38.71
2023-04-06T18:03:33.554Z,38.84
2023-04-06T18:06:09.548Z,38.66
2023-04-06T18:08:36.870Z,39.02
2023-04-06T18:11:04.565Z,39.58
2023-04-06T18:13:33.498Z,39.46
2023-04-06T18:16:01.681Z,40.90
2023-04-06T18:18:29.163Z,41.57
2023-04-06T18:20:56.489Z,40.77
2023-04-06T18:23:23.739Z,41.22
2023-04-06T18:29:13.988Z,41.89
2023-04-06T18:31:41.387Z,41.56
2023-04-06T18:34:08.650Z,43.41
2023-04-06T18:36:36.169Z,43.58
2023-04-06T18:39:03.546Z,43.68
2023-04-06T18:41:31.096Z,44.86
2023-04-06T18:43:58.665Z,45.64
2023-04-06T18:46:27.275Z,45.48
2023-04-06T18:48:54.576Z,46.35
2023-04-06T18:51:21.967Z,46.97
2023-04-06T18:53:49.290Z,46.92
2023-04-06T18:56:18.316Z,46.99
2023-04-06T18:58:46.245Z,47.50
2023-04-06T19:01:20.576Z,47.87
2023-04-06T19:03:49.383Z,48.55
2023-04-06T19:06:16.833Z,48.42
2023-04-06T19:08:44.087Z,49.09
2023-04-06T19:11:11.825Z,49.32
2023-04-06T19:13:39.149Z,49.08
2023-04-06T19:16:10.127Z,48.78
2023-04-06T19:18:38.089Z,48.53
2023-04-06T19:21:14.795Z,49.85
2023-04-06T19:23:42.079Z,49.14
2023-04-06T19:26:10.161Z,49.13
2023-04-06T19:28:37.456Z,49.14
2023-04-06T19:31:05.800Z,50.70
2023-04-06T19:33:35.188Z,51.55
2023-04-06T19:36:02.977Z,52.21
2023-04-06T19:38:32.576Z,52.38
2023-04-06T19:41:00.045Z,52.39
2023-04-06T19:43:27.361Z,52.38
2023-04-06T19:45:54.775Z,53.30
2023-04-06T19:48:22.115Z,53.27
2023-04-06T19:50:49.540Z,53.54
2023-04-06T19:53:16.794Z,53.95
2023-04-06T19:55:46.624Z,53.21
2023-04-06T19:58:14.204Z,53.13
2023-04-06T20:00:41.535Z,54.24
2023-04-06T20:03:09.199Z,54.42
2023-04-06T20:05:36.625Z,54.24
2023-04-06T20:08:03.932Z,54.45
2023-04-06T20:10:31.169Z,54.64
2023-04-06T20:13:01.156Z,56.41
2023-04-06T20:15:28.468Z,56.74
2023-04-06T20:17:55.925Z,56.33
2023-04-06T20:20:23.201Z,55.91
2023-04-06T20:22:50.508Z,56.09
2023-04-06T20:25:17.797Z,55.39
2023-04-06T20:27:45.521Z,55.36
2023-04-06T20:30:15.392Z,55.61
2023-04-06T20:32:42.744Z,55.81
2023-04-06T20:35:10.499Z,56.34
2023-04-06T20:37:38.715Z,56.00
2023-04-06T20:40:06.809Z,56.28
2023-04-06T20:42:34.216Z,55.93
2023-04-06T20:45:03.058Z,56.89
2023-04-06T20:47:32.190Z,57.28
2023-04-06T20:49:59.624Z,57.84
2023-04-06T20:52:27.621Z,58.17
2023-04-06T20:54:55.025Z,56.40
2023-04-06T20:57:22.329Z,56.14
2023-04-06T20:59:49.599Z,55.88
2023-04-06T21:02:17.437Z,55.98
2023-04-06T21:04:46.237Z,56.44
2023-04-06T21:07:13.564Z,56.49
2023-04-06T21:09:41.340Z,56.79
2023-04-06T21:12:08.766Z,56.84
2023-04-06T21:14:36.440Z,57.76
2023-04-06T21:17:04.112Z,57.45
2023-04-06T21:19:31.503Z,58.48
2023-04-06T21:22:00.132Z,58.71
2023-04-06T21:24:27.468Z,59.19
2023-04-06T21:26:54.766Z,58.60
2023-04-06T21:29:22.075Z,59.00
2023-04-06T21:31:49.345Z,59.46
2023-04-06T21:34:16.985Z,60.24
2023-04-06T21:36:44.448Z,60.90
2023-04-06T21:39:13.098Z,60.28
2023-04-06T21:41:40.654Z,60.78
2023-04-06T21:44:07.930Z,61.69
2023-04-06T21:46:35.390Z,61.56
2023-04-06T21:49:02.693Z,61.46
2023-04-06T21:51:30.015Z,61.85
2023-04-06T21:53:57.285Z,61.95
2023-04-06T21:56:26.274Z,62.47
2023-04-06T21:58:53.706Z,63.02
2023-04-06T22:01:21.257Z,63.70
2023-04-06T22:03:49.454Z,63.09
2023-04-06T22:06:17.006Z,63.51
2023-04-06T22:08:45.945Z,63.45
2023-04-06T22:11:13.235Z,64.14
2023-04-06T22:13:41.829Z,64.26
2023-04-06T22:16:09.155Z,64.87
2023-04-06T22:18:38.897Z,64.72
2023-04-06T22:21:06.963Z,64.79
2023-04-06T22:23:34.343Z,65.17
2023-04-06T22:26:01.619Z,64.95
2023-04-06T22:28:28.897Z,64.77
2023-04-06T22:30:57.468Z,65.58
2023-04-06T22:33:25.039Z,65.54
2023-04-06T22:35:52.313Z,65.86
2023-04-06T22:38:19.632Z,66.04
2023-04-06T22:40:46.890Z,65.71
2023-04-06T22:43:14.150Z,66.08
2023-04-06T22:45:41.629Z,66.26
2023-04-06T22:48:10.266Z,67.07
2023-04-06T22:50:37.551Z,67.43
2023-04-06T22:53:04.793Z,67.00
2023-04-06T22:55:32.116Z,67.00
2023-04-06T22:57:59.430Z,67.20
2023-04-06T23:00:26.699Z,66.96
2023-04-06T23:02:54.096Z,67.32
2023-04-06T23:05:22.822Z,66.62
2023-04-06T23:07:51.151Z,66.77
2023-04-06T23:10:20.042Z,67.93
2023-04-06T23:12:48.204Z,68.76
2023-04-06T23:15:15.697Z,69.59
2023-04-06T23:17:42.957Z,69.98
2023-04-06T23:20:10.583Z,69.68
2023-04-06T23:22:39.449Z,69.36
2023-04-06T23:25:07.989Z,69.45
2023-04-06T23:27:35.599Z,69.20
2023-04-06T23:30:02.858Z,68.97
2023-04-06T23:32:30.247Z,69.28
2023-04-06T23:34:57.592Z,69.08
2023-04-06T23:37:24.859Z,68.68
2023-04-06T23:39:53.422Z,68.38
2023-04-06T23:42:20.868Z,67.90
2023-04-06T23:44:48.310Z,67.60
2023-04-06T23:47:15.631Z,67.86
2023-04-06T23:49:42.923Z,68.03
2023-04-06T23:52:10.226Z,68.01
2023-04-06T23:54:37.519Z,67.93
2023-04-06T23:57:06.110Z,67.70
2023-04-06T23:59:33.402Z,67.64
